CLASSIFICA

X-WARRIOR LITE

GARA OCR KM 7

MOLVENO (TN) 26/05/2018

DIVISIONI:
X-LITE COMPETITIVA     X-LITE NON COMP.     CLASSIFICA:   ASSOLUTA    M     F    
CATEGORIE:   TUTTE    |   18-24(F)   |   18-24(M)   |   25-29(F)   |   25-29(M)   |   30-34(F)   |   30-34(M)   |   35-39(F)   |   35-39(M)   |   40-44(F)   |   40-44(M)   |   45-49(M)   |   50-99(F)   |   50-99(M)  
ALTRO: Classifica Team 
FILTRO:
  Atleta      Team        Pulisci       Atleti classificati X-LITE COMPETITIVA: 146  

Cliccare sulle colonne per cambiare ordinamento Pagina:   | 1 | | 2 | | 3 |
Pos. M/F Cat. P.Cat. Pett Naz Atleta Squadra Tempo Distacco in tempo Distacco in metri Min/Km braccialetti regione
1125-29(M)1161COLOMBO STEFANOTEAMOCRHEROES00:29:04 00:00:00 0 00:04:09 3 -
2230-34(M)1216DEPEDRI RAFFAELEVERONA FORCE RUN ARMY00:30:13 00:01:09 266 00:04:19 3 R
3325-29(M)2189KADIJA RIGERSINFERNO TEAM00:31:09 00:02:05 468 00:04:27 3 -
4418-24(M)1258MORI RICCARDOINFERNO TEAM00:33:02 00:03:58 840 00:04:43 3 -
5530-34(M)2166DALESSANDRO MARCOINFERNO TEAM00:33:30 00:04:26 926 00:04:47 3 -
6625-29(M)3254DEL PIANO ANDREAINFERNO TEAM00:33:59 00:04:55 1.012 00:04:51 3 -
7730-34(M)3192MACCHIAVELLO CLAUDIOINFERNO TEAM00:34:32 00:05:28 1.108 00:04:56 3 -
8825-29(M)4204MORGANTE GIUSEPPEFARMRUN00:36:46 00:07:42 1.466 00:05:15 3 -
9930-34(M)4237VILLANI MARCOINDIVIDUALE00:36:59 00:07:55 1.498 00:05:17 3 -
101030-34(M)5134BERTOLASI MARCOWHITE DONKEYS OCR TEAM00:37:19 00:08:15 1.547 00:05:20 3 -
111125-29(M)5156CAVICCHIOLO LUCA GIUSEPPEANIMALS OCR TEAM00:40:35 00:11:31 1.986 00:05:48 3 -
121230-34(M)6131BELLODI ANDREAWHITE DONKEYS OCR TEAM00:41:34 00:12:30 2.105 00:05:56 3 -
131325-29(M)6184GIANNETTONI LORENZOINDIVIDUALE00:41:44 00:12:40 2.124 00:05:58 3 -
141425-29(M)7139BOTTINO SIMONEINDIVIDUALE00:43:57 00:14:53 2.370 00:06:17 3 -
151540-44(M)1148CASCHILI MARCOINDIVIDUALE00:44:42 00:15:38 2.448 00:06:23 3 -
161625-29(M)8130BATTAGLIA DINOFARMRUN00:44:54 00:15:50 2.468 00:06:25 3 -
171718-24(M)2259ASTORGA FERNANDOINDIVIDUALE00:45:10 00:16:06 2.495 00:06:27 3 -
181840-44(M)2256BERTA PAOLOWHITEDONKEYS00:45:30 00:16:26 2.528 00:06:30 3 R
191930-34(M)7232TREVISAN MASSIMOINDIVIDUALE00:45:43 00:16:39 2.549 00:06:32 3 R
202030-34(M)8175FIORIO MATTIASERAT00:46:20 00:17:16 2.608 00:06:37 3 -
212125-29(M)9190LACULICEANU DANIELROMAOCR00:46:20 00:17:16 2.608 00:06:37 3 -
222230-34(M)9183GIACONE MASSIMOTEAM WRI00:46:28 00:17:24 2.621 00:06:38 3 -
232330-34(M)10222ROVESTI MICHAELWHITE DONKEYS OCR TEAM00:46:30 00:17:26 2.624 00:06:39 3 -
24130-34(F)1248PAOLA BARDELLINIINFERNO TEAM00:46:58 00:17:54 2.667 00:06:43 3 -
252425-29(M)10244BRONDI MARCOVERONA FORCE RUN ARMY00:47:13 00:18:09 2.690 00:06:45 3 -
262518-24(M)3228SIMI MATTIAINDIVIDUALE00:47:52 00:18:48 2.749 00:06:50 3 R
272630-34(M)11250BARALDI DAVIDEWHITEDONKEYS00:48:36 00:19:32 2.813 00:06:57 3 R
282745-49(M)1158CINI ROLANDOINDIVIDUALE00:49:06 00:20:02 2.856 00:07:01 3 -
292830-34(M)12186GUERNIERI VALERIOWHITE DONKEYS OCR TEAM00:49:12 00:20:08 2.864 00:07:02 3 -
302935-39(M)1138BONFANTI ANDREATEAM KBGYM00:49:33 00:20:29 2.893 00:07:05 3 -
31230-34(F)2119MERENDA LUANAINDIVIDUALE00:50:17 00:21:13 2.953 00:07:11 3 -
323035-39(M)2252TIBERI ANTONIOINDIVIDUALE00:50:34 00:21:30 2.976 00:07:13 3 -
333135-39(M)3178FRATARCANGELI MASSIMOMAXIMUS CROSS RUN00:50:58 00:21:54 3.007 00:07:17 3 -
343230-34(M)13240ZANONI MATTEOWHITE DONKEYS OCR TEAM00:51:04 00:22:00 3.015 00:07:18 3 -
353325-29(M)11243MARTIGNONI MARCOVERONA FORCE RUN ARMY00:51:24 00:22:20 3.041 00:07:21 3 -
363418-24(M)4135BIONDAN MARCOINDIVIDUALE00:51:32 00:22:28 3.051 00:07:22 3 R
373540-44(M)3205MORITA TATSUYAINDIVIDUALE00:51:36 00:22:32 3.056 00:07:22 3 -
383630-34(M)14122LINDIRI FABIOWHITE DONKEYS OCR TEAM00:52:51 00:23:47 3.150 00:07:33 3 -
393730-34(M)15249LORENZETTO ALBERTOVERONA FORCE RUN ARMY00:52:59 00:23:55 3.159 00:07:34 3 -
40318-24(F)1257ZENGA CAROLINFERNO TEAM00:53:35 00:24:31 3.202 00:07:39 3 -
413835-39(M)4169DE PRA JACOPOANIMALS OCR TEAM00:54:14 00:25:10 3.248 00:07:45 3 -
423925-29(M)12299BONAMICI LUCAINDIVIDUALE00:54:51 00:25:47 3.290 00:07:50 3 -
434035-39(M)5210PAZZINI THOMASINDIVIDUALE00:56:02 00:26:58 3.368 00:08:00 3 -
44418-24(F)2118MAZZUCCO ELISABETTAINDIVIDUALE00:58:18 00:29:14 3.510 00:08:20 3 -
454118-24(M)5212POJER SAMUELBAR BROTHERS00:59:55 00:30:51 3.604 00:08:34 3 R
464218-24(M)6180GASPARINI RICCARDOBAR BROTHERS00:59:55 00:30:51 3.604 00:08:34 3 -
474330-34(M)16221RONCHI LEANDROINDIVIDUALE01:00:18 00:31:14 3.625 00:08:37 3 -
48525-29(F)1108DEGASPERI SARAVERONA FORCE RUN ARMY01:01:10 00:32:06 3.673 00:08:44 3 R
494435-39(M)6182GHINZELLI DARIOWHITE DONKEYS OCR TEAM01:01:44 00:32:40 3.704 00:08:49 3 -
50630-34(F)3117LOVATO DANIELAWHITE DONKEYS OCR TEAM01:01:52 00:32:48 3.711 00:08:50 3 -
514535-39(M)7137BONESI SAMUELWHITEDONKEYS TEAM01:02:10 00:33:06 3.727 00:08:53 3 -
524625-29(M)13154CAVALLARI FABIOANIMALS OCR TEAM01:02:32 00:33:28 3.746 00:08:56 3 -
534745-49(M)2298ARCIERI VITOINDIVIDUALE01:03:15 00:34:11 3.783 00:09:02 3 -
544830-34(M)17251PASOTTI LUCAINDIVIDUALE01:03:25 00:34:21 3.791 00:09:04 3 -
55725-29(F)2245BARTOLI SARANINJA CAVE01:05:39 00:36:35 3.900 00:09:23 3 -
564945-49(M)3196MARINI ALESSANDROANIMALS OCR TEAM01:05:40 00:36:36 3.901 00:09:23 3 R
575040-44(M)41306LOZZI ENRICOINDIVIDUALE01:07:12 00:38:08 3.972 00:09:36 3 -
585125-29(M)14174DONCHEV ZDRAVKOANIMALS OCR TEAM01:09:17 00:40:13 4.063 00:09:54 3 -
595230-34(M)18241ZAPPA STEFANOWHITE DONKEYS OCR TEAM01:27:13 00:58:09 4.667 00:12:28 3 -
605330-34(M)19173DODI FRANCESCOWHITE DONKEYS OCR TEAM00:38:12 00:09:08 1.673 00:05:27 2 -
615435-39(M)8101PELI DAVIDEINDIVIDUALE00:39:15 00:10:11 1.816 00:05:36 2 -
625530-34(M)20233TROPEA MASSIMILIANODAS TEAM OCR00:40:05 00:11:01 1.923 00:05:44 2 -
635635-39(M)9177FRACCARO ANDREAINDIVIDUALE00:40:41 00:11:37 1.998 00:05:49 2 -
645735-39(M)10239ZANOLLI PAOLOFELICETTI'S FROM ITALY00:42:03 00:12:59 2.161 00:06:00 2 R
655825-29(M)15297AMADUCCI LUCAINDIVIDUALE00:42:12 00:13:08 2.178 00:06:02 2 -
665925-29(M)16208PALVARINI ANDREAANIMALS OCR TEAM00:43:32 00:14:28 2.326 00:06:13 2 -
676035-39(M)11200MASTRORILLI SABINOFELICETTI'S FROM ITALY00:43:36 00:14:32 2.333 00:06:14 2 R
686118-24(M)7160COCCO ANTHONYINDIVIDUALE00:43:39 00:14:35 2.338 00:06:14 2 R
696235-39(M)12227SFERCH LUCAINDIVIDUALE00:44:24 00:15:20 2.417 00:06:21 2 -
70830-34(F)4105CAPOVILLA ROBERTAFELICETTI'S FROM ITALY00:44:52 00:15:48 2.465 00:06:25 2 R
716330-34(M)21165CUSMANO CARLOSERAT00:45:30 00:16:26 2.528 00:06:30 2 -
726418-24(M)8242DALLA PALMA LORENZOINDIVIDUALE00:46:39 00:17:35 2.638 00:06:40 2 R
736530-34(M)22202MOLGORA GABRIELEINDIVIDUALE00:47:38 00:18:34 2.728 00:06:48 2 -
746650-99(M)1185GIOVANNINI PAOLOANIMALS OCR TEAM00:49:10 00:20:06 2.861 00:07:01 2 -
756730-34(M)23188INVERNIZZI STEFANOSPORTPIÙ CURNO00:50:12 00:21:08 2.946 00:07:10 2 -
766825-29(M)17145CARDIA VINCENZOINDIVIDUALE00:50:18 00:21:14 2.954 00:07:11 2 -
776930-34(M)24162CORRADINI ALBERTOLA BESTIA00:50:46 00:21:42 2.992 00:07:15 2 -
787045-49(M)4296LEONI MAUROINFERNO TEAM00:51:25 00:22:21 3.042 00:07:21 2 -
797125-29(M)18149CASIRAGHI LUCAWHITEDONKEYS TEAM00:52:12 00:23:08 3.102 00:07:27 2 -
80935-39(F)1253HENAHO CARMENINDIVIDUALE00:52:52 00:23:48 3.151 00:07:33 2 -
817240-44(M)5211PETTORALI SIMONEINDIVIDUALE00:52:53 00:23:49 3.152 00:07:33 2 -
827335-39(M)13155CAVALLINI GIACOMO LUIGIINDIVIDUALE00:53:03 00:23:59 3.164 00:07:35 2 -
831035-39(F)2112FARTADE SERBAN ADRIANAX-MAT00:53:17 00:24:13 3.181 00:07:37 2 -
847425-29(M)19214QUAGLIATA ANTONIOSAN FELICE OCR00:53:32 00:24:28 3.199 00:07:39 2 -
857550-99(M)2147CARPINTERI NUNZIOINDIVIDUALE00:53:40 00:24:36 3.208 00:07:40 2 -
861125-29(F)3255BALISCIANO MORETTI ILARIAINDIVIDUALE00:53:45 00:24:41 3.214 00:07:41 2 -
877630-34(M)25238ZANETTI PAOLOINDIVIDUALE00:54:06 00:25:02 3.239 00:07:44 2 -
887725-29(M)20176FORNASIER FRANCESCOLA BESTIA00:54:26 00:25:22 3.262 00:07:47 2 -
897845-49(M)5234TROVO' MASSIMILIANOCIAPA RAT00:54:36 00:25:32 3.273 00:07:48 2 -
907918-24(M)9151CASTROGIOVANNI NICHOLASINDIVIDUALE00:54:39 00:25:35 3.276 00:07:48 2 -
911235-39(F)3121PIERPAOLI DANIELAINDIVIDUALE00:55:09 00:26:05 3.310 00:07:53 2 -
928025-29(M)21207ODINELLI MATTEO#TROVATIBENE00:55:54 00:26:50 3.360 00:07:59 2 -
931335-39(F)4111D'ORAZIO ELEONORAMAXIMUS CROSS RUN00:55:57 00:26:53 3.363 00:08:00 2 -
948135-39(M)14230STEFANINI FRANCESCOINDIVIDUALE00:55:58 00:26:54 3.364 00:08:00 2 -
958225-29(M)22142CAINELLI MARTINOFELICETTI'S FROM ITALY00:56:07 00:27:03 3.374 00:08:01 2 R
968325-29(M)23133BERTOLASI LUCAWHITE DONKEYS OCR TEAM00:56:07 00:27:03 3.374 00:08:01 2 -
978425-29(M)24203MONTI MARCOINDIVIDUALE00:56:21 00:27:17 3.389 00:08:03 2 -
988545-49(M)6218RAVIZZA MARCO ALFREDOINDIVIDUALE00:57:02 00:27:58 3.432 00:08:09 2 -
998618-24(M)10140BRUZZI CARLOPLACENTIA EVENT'S00:58:11 00:29:07 3.503 00:08:19 2 -
1008725-29(M)25167DAVIDE PAPAMADENNA MAIALA00:58:15 00:29:11 3.507 00:08:19 2 -
1011425-29(F)4123RIZZI MARIACHIARALA BESTIA00:58:27 00:29:23 3.518 00:08:21 2 -
1028845-49(M)7150CASTEGNARO ANDREAQUELLI DELLE 700:58:32 00:29:28 3.523 00:08:22 2 -
1038925-29(M)26197MARZOLLA ANDREAINDIVIDUALE00:58:33 00:29:29 3.524 00:08:22 2 -
1049025-29(M)27213POSCA PIETROMADENNA MAIALA00:58:40 00:29:36 3.531 00:08:23 2 -
1059125-29(M)28217RANIERI LUCA#TROVATIBENE00:59:03 00:29:59 3.554 00:08:26 2 -
1069250-99(M)3223SATTANINO CARLOINDIVIDUALE00:59:13 00:30:09 3.564 00:08:28 2 R
1079325-29(M)29193MAGAGNIN MATTEOINDIVIDUALE00:59:30 00:30:26 3.580 00:08:30 2 R
1089450-99(M)4195MARABINI ROBERTOINDIVIDUALE00:59:34 00:30:30 3.584 00:08:31 2 -
1099545-49(M)8226SEPE MASSIMILIANOMAXIMUS CROSS RUN00:59:57 00:30:53 3.606 00:08:34 2 -
1109650-99(M)5191LIGORIO LUIGIANIMALS OCR TEAM01:00:59 00:31:55 3.663 00:08:43 2 -
1119735-39(M)15143CALLEGARI ALESSANDROINDIVIDUALE01:03:20 00:34:16 3.787 00:09:03 2 R
1129835-39(M)16209PAPALEO CARMINEINDIVIDUALE01:03:21 00:34:17 3.788 00:09:03 2 -
1139940-44(M)6163COSSA ALESSANDROMADENNA MAIALA01:04:13 00:35:09 3.831 00:09:10 2 -
11410040-44(M)7146CARLINI SIMONEFARMRUN01:04:18 00:35:14 3.835 00:09:11 2 -
11510145-49(M)9206MOSCA MARIOX-MAT01:05:14 00:36:10 3.880 00:09:19 2 R
11610230-34(M)26141CACCESE MICHELEINDIVIDUALE01:05:36 00:36:32 3.898 00:09:22 2 R
11710325-29(M)30170DEAVI STEFANOINDIVIDUALE01:06:29 00:37:25 3.939 00:09:30 2 R
11810430-34(M)27199MASELLI LUCAINDIVIDUALE01:06:34 00:37:30 3.943 00:09:31 2 -
11910550-99(M)6225SCAZZOLA DANILOCIAPA RAT01:06:52 00:37:48 3.957 00:09:33 2 -
1201535-39(F)5125TAGLIERI BARBARACIAPA RAT01:07:52 00:38:48 4.001 00:09:42 2 -
12110635-39(M)17172DI MICHELE ANGELOMADENNA MAIALA01:07:59 00:38:55 4.007 00:09:43 2 -
1221635-39(F)6102BELLOMI LAURAANIMALS OCR TEAM01:09:18 00:40:14 4.063 00:09:54 2 R
12310735-39(M)18136SIMONE ZORZETTOWHITE DONKEYS OCR TEAM01:10:12 00:41:08 4.101 00:10:02 2 R
1241740-44(F)1110DOMINICI BARBARAFARMRUN01:10:57 00:41:53 4.132 00:10:08 2 -
1251850-99(F)1104CALAFIORE LUCIAINDIVIDUALE01:12:02 00:42:58 4.175 00:10:17 2 R
1261930-34(F)5109DI CICCO DEBORAINDIVIDUALE01:12:15 00:43:11 4.183 00:10:19 2 R
12710830-34(M)28159CIVA LORENZOWHITEDONKEYS TEAM01:12:21 00:43:17 4.187 00:10:20 2 -
12810935-39(M)19220RIZZI GIANMATTEOLA BESTIA01:13:06 00:44:02 4.216 00:10:27 2 -
1292030-34(F)6128ZARLENGA MARTINAINDIVIDUALE01:16:40 00:47:36 4.346 00:10:57 2 -
13011025-29(M)31235VELZI MARCOMADENNA MAIALA01:16:58 00:47:54 4.356 00:11:00 2 -
1312140-44(F)2120PERRONE IDA ANNAWHITE DONKEYS OCR TEAM01:17:24 00:48:20 4.371 00:11:03 2 -
1322225-29(F)5124ROMITO MARTINAWHITE DONKEYS OCR TEAM01:18:20 00:49:16 4.402 00:11:11 2 -
13311125-29(M)32215RABENSTEINER TOBIASINDIVIDUALE01:18:42 00:49:38 4.414 00:11:15 2 R
1342335-39(F)7247BATTIATI ADELEMAXIMUS CROSS RUN01:26:54 00:57:50 4.658 00:12:25 2 -
1352430-34(F)7106CAPPAI ELEONORAWHITE DONKEYS OCR TEAM01:27:14 00:58:10 4.667 00:12:28 2 -
13611240-44(M)8164CRISTAUDO GIUSEPPE FAUSTOWHITEDONKEYS TEAM01:29:54 01:00:50 4.736 00:12:51 2 -
1372525-29(F)6103BONGIOVANNI SARAINDIVIDUALE01:33:34 01:04:30 4.825 00:13:22 2 -
13811345-49(M)10129ALDABE UGARTE AUGUSTOINDIVIDUALE00:43:31 00:14:27 2.324 00:06:13 1 R
13911435-39(M)20201MATTIVI MICHELFELICETTI'S FROM ITALY00:48:41 00:19:37 2.820 00:06:57 1 R
1402635-39(F)8127ZANNI ARIANNAINDIVIDUALE01:12:27 00:43:23 4.191 00:10:21 1 -
14111535-39(M)21168DE PAOLA ANDREAINDIVIDUALE01:17:02 00:47:58 4.358 00:11:00 1 -
14211630-34(M)29181GHELLER LORISLA BESTIA01:17:45 00:48:41 4.383 00:11:06 1 R
14311750-99(M)7236VERDOIA ALESSANDROMADENNA MAIALA01:18:33 00:49:29 4.409 00:11:13 1 -
1442718-24(F)3113FERRERO ANGELAINDIVIDUALE01:18:42 00:49:38 4.414 00:11:15 1 -
14511830-34(M)30229SOZZI GIANPIETROINDIVIDUALE01:28:35 00:59:31 4.703 00:12:39 1 -
1462825-29(F)7115INTROINI VERONICAMADENNA MAIALA01:21:18 00:52:14 4.497 00:11:37 0 -
Righe per pagina::     TUTTE    |   30   |   50   |   100   Pagina:   | 1 | | 2 | | 3 |